sensor_id;sensor_type;location;lat;lon;timestamp;P1;durP1;ratioP1;P2;durP2;ratioP2
974;SDS011;6115;49.296;10.602;2022-12-10T00:03:43;866.43;;;807.23;;
974;SDS011;6115;49.296;10.602;2022-12-10T00:08:45;829.27;;;773.70;;
974;SDS011;6115;49.296;10.602;2022-12-10T00:13:46;804.77;;;751.63;;
974;SDS011;6115;49.296;10.602;2022-12-10T00:18:47;752.13;;;703.93;;
974;SDS011;6115;49.296;10.602;2022-12-10T00:23:48;703.63;;;659.73;;
974;SDS011;6115;49.296;10.602;2022-12-10T00:28:50;808.83;;;755.97;;
974;SDS011;6115;49.296;10.602;2022-12-10T00:33:55;902.40;;;839.80;;
974;SDS011;6115;49.296;10.602;2022-12-10T00:38:57;912.40;;;847.87;;
974;SDS011;6115;49.296;10.602;2022-12-10T00:43:58;892.17;;;830.47;;
974;SDS011;6115;49.296;10.602;2022-12-10T00:49:00;913.90;;;850.03;;
974;SDS011;6115;49.296;10.602;2022-12-10T00:54:00;912.10;;;848.73;;
974;SDS011;6115;49.296;10.602;2022-12-10T00:59:02;838.80;;;782.57;;
974;SDS011;6115;49.296;10.602;2022-12-10T01:04:04;840.37;;;784.10;;
974;SDS011;6115;49.296;10.602;2022-12-10T01:09:13;894.87;;;833.37;;
974;SDS011;6115;49.296;10.602;2022-12-10T01:14:19;929.27;;;863.87;;
974;SDS011;6115;49.296;10.602;2022-12-10T01:19:22;901.87;;;839.80;;
974;SDS011;6115;49.296;10.602;2022-12-10T01:24:23;961.90;;;891.70;;
974;SDS011;6115;49.296;10.602;2022-12-10T01:29:25;977.17;;;905.60;;
974;SDS011;6115;49.296;10.602;2022-12-10T01:34:27;1035.83;;;955.27;;
974;SDS011;6115;49.296;10.602;2022-12-10T01:39:28;1051.40;;;968.90;;
974;SDS011;6115;49.296;10.602;2022-12-10T01:49:33;1067.63;;;983.20;;
974;SDS011;6115;49.296;10.602;2022-12-10T01:54:38;1044.23;;;963.30;;
974;SDS011;6115;49.296;10.602;2022-12-10T01:59:41;1038.33;;;958.13;;
974;SDS011;6115;49.296;10.602;2022-12-10T02:15:17;904.00;;;841.53;;
974;SDS011;6115;49.296;10.602;2022-12-10T02:25:31;916.00;;;851.83;;
974;SDS011;6115;49.296;10.602;2022-12-10T02:30:36;936.87;;;870.00;;
974;SDS011;6115;49.296;10.602;2022-12-10T02:35:39;970.10;;;899.53;;
974;SDS011;6115;49.296;10.602;2022-12-10T02:40:46;916.50;;;851.93;;
974;SDS011;6115;49.296;10.602;2022-12-10T02:45:49;947.90;;;879.90;;
974;SDS011;6115;49.296;10.602;2022-12-10T02:50:50;974.93;;;904.03;;
974;SDS011;6115;49.296;10.602;2022-12-10T03:01:32;1045.23;;;962.70;;
974;SDS011;6115;49.296;10.602;2022-12-10T03:06:59;1053.17;;;970.53;;
974;SDS011;6115;49.296;10.602;2022-12-10T03:12:06;1027.90;;;948.73;;
974;SDS011;6115;49.296;10.602;2022-12-10T03:17:16;960.50;;;890.60;;
974;SDS011;6115;49.296;10.602;2022-12-10T03:22:18;927.67;;;862.30;;
974;SDS011;6115;49.296;10.602;2022-12-10T03:27:21;926.83;;;861.53;;
974;SDS011;6115;49.296;10.602;2022-12-10T03:32:24;991.77;;;918.23;;
974;SDS011;6115;49.296;10.602;2022-12-10T03:37:27;999.27;;;924.37;;
974;SDS011;6115;49.296;10.602;2022-12-10T03:42:29;936.47;;;869.50;;
974;SDS011;6115;49.296;10.602;2022-12-10T03:47:29;855.10;;;797.10;;
974;SDS011;6115;49.296;10.602;2022-12-10T03:52:30;845.13;;;787.77;;
974;SDS011;6115;49.296;10.602;2022-12-10T03:57:31;922.30;;;857.10;;
974;SDS011;6115;49.296;10.602;2022-12-10T04:02:31;878.77;;;819.03;;
974;SDS011;6115;49.296;10.602;2022-12-10T04:07:32;889.60;;;828.13;;
974;SDS011;6115;49.296;10.602;2022-12-10T04:12:33;876.03;;;816.17;;
974;SDS011;6115;49.296;10.602;2022-12-10T04:17:34;922.33;;;857.33;;
974;SDS011;6115;49.296;10.602;2022-12-10T04:22:34;862.70;;;804.00;;
974;SDS011;6115;49.296;10.602;2022-12-10T04:27:54;854.40;;;797.00;;
974;SDS011;6115;49.296;10.602;2022-12-10T04:32:54;896.70;;;834.67;;
974;SDS011;6115;49.296;10.602;2022-12-10T04:37:55;952.23;;;883.57;;
974;SDS011;6115;49.296;10.602;2022-12-10T04:42:55;925.30;;;859.90;;
974;SDS011;6115;49.296;10.602;2022-12-10T04:47:56;919.63;;;855.00;;
974;SDS011;6115;49.296;10.602;2022-12-10T04:52:56;919.50;;;855.23;;
974;SDS011;6115;49.296;10.602;2022-12-10T04:57:57;939.30;;;871.90;;
974;SDS011;6115;49.296;10.602;2022-12-10T05:02:57;935.00;;;868.40;;
974;SDS011;6115;49.296;10.602;2022-12-10T05:07:58;914.27;;;850.57;;
974;SDS011;6115;49.296;10.602;2022-12-10T05:12:58;908.30;;;845.63;;
974;SDS011;6115;49.296;10.602;2022-12-10T05:17:59;870.40;;;811.13;;
974;SDS011;6115;49.296;10.602;2022-12-10T05:23:00;828.13;;;773.57;;
974;SDS011;6115;49.296;10.602;2022-12-10T05:28:37;811.60;;;758.40;;
974;SDS011;6115;49.296;10.602;2022-12-10T05:33:39;764.20;;;715.30;;
974;SDS011;6115;49.296;10.602;2022-12-10T05:38:39;725.47;;;679.27;;
974;SDS011;6115;49.296;10.602;2022-12-10T05:43:41;736.33;;;689.67;;
974;SDS011;6115;49.296;10.602;2022-12-10T05:48:42;826.33;;;771.23;;
974;SDS011;6115;49.296;10.602;2022-12-10T05:53:42;819.27;;;765.00;;
974;SDS011;6115;49.296;10.602;2022-12-10T05:58:44;872.27;;;812.90;;
974;SDS011;6115;49.296;10.602;2022-12-10T06:03:46;831.87;;;776.50;;
974;SDS011;6115;49.296;10.602;2022-12-10T06:08:46;763.03;;;714.23;;
974;SDS011;6115;49.296;10.602;2022-12-10T06:13:47;755.70;;;706.50;;
974;SDS011;6115;49.296;10.602;2022-12-10T06:18:48;735.33;;;689.27;;
974;SDS011;6115;49.296;10.602;2022-12-10T06:23:49;739.57;;;692.97;;
974;SDS011;6115;49.296;10.602;2022-12-10T06:28:51;647.23;;;607.17;;
974;SDS011;6115;49.296;10.602;2022-12-10T06:33:53;662.93;;;622.37;;
974;SDS011;6115;49.296;10.602;2022-12-10T06:38:54;658.27;;;617.60;;
974;SDS011;6115;49.296;10.602;2022-12-10T06:43:55;632.37;;;593.87;;
974;SDS011;6115;49.296;10.602;2022-12-10T06:48:58;602.17;;;566.27;;
974;SDS011;6115;49.296;10.602;2022-12-10T06:53:59;585.40;;;550.67;;
974;SDS011;6115;49.296;10.602;2022-12-10T06:59:03;589.40;;;554.23;;
974;SDS011;6115;49.296;10.602;2022-12-10T07:04:06;592.80;;;556.97;;
974;SDS011;6115;49.296;10.602;2022-12-10T07:09:08;563.77;;;530.77;;
974;SDS011;6115;49.296;10.602;2022-12-10T07:14:13;552.30;;;519.33;;
974;SDS011;6115;49.296;10.602;2022-12-10T07:19:15;509.40;;;479.53;;
974;SDS011;6115;49.296;10.602;2022-12-10T07:24:16;427.20;;;401.70;;
974;SDS011;6115;49.296;10.602;2022-12-10T07:29:19;371.67;;;350.10;;
974;SDS011;6115;49.296;10.602;2022-12-10T07:34:20;345.90;;;324.87;;
974;SDS011;6115;49.296;10.602;2022-12-10T07:39:21;377.33;;;354.67;;
974;SDS011;6115;49.296;10.602;2022-12-10T07:44:23;424.47;;;399.37;;
974;SDS011;6115;49.296;10.602;2022-12-10T07:49:25;462.97;;;434.93;;
974;SDS011;6115;49.296;10.602;2022-12-10T07:54:25;549.53;;;516.57;;
974;SDS011;6115;49.296;10.602;2022-12-10T07:59:26;672.90;;;630.60;;
974;SDS011;6115;49.296;10.602;2022-12-10T08:04:29;652.47;;;612.37;;
974;SDS011;6115;49.296;10.602;2022-12-10T08:09:30;690.30;;;647.23;;
974;SDS011;6115;49.296;10.602;2022-12-10T08:14:31;725.73;;;680.03;;
974;SDS011;6115;49.296;10.602;2022-12-10T08:19:31;707.23;;;662.27;;
974;SDS011;6115;49.296;10.602;2022-12-10T08:24:32;670.97;;;629.93;;
974;SDS011;6115;49.296;10.602;2022-12-10T08:29:33;618.07;;;581.10;;
974;SDS011;6115;49.296;10.602;2022-12-10T08:34:33;608.53;;;571.53;;
974;SDS011;6115;49.296;10.602;2022-12-10T08:39:34;694.37;;;650.23;;
974;SDS011;6115;49.296;10.602;2022-12-10T08:44:34;756.73;;;708.37;;
974;SDS011;6115;49.296;10.602;2022-12-10T08:49:35;819.03;;;764.80;;
974;SDS011;6115;49.296;10.602;2022-12-10T08:54:36;863.93;;;804.67;;
974;SDS011;6115;49.296;10.602;2022-12-10T08:59:36;917.23;;;852.33;;
974;SDS011;6115;49.296;10.602;2022-12-10T09:04:37;1012.63;;;935.60;;
974;SDS011;6115;49.296;10.602;2022-12-10T09:09:39;1075.87;;;989.67;;
974;SDS011;6115;49.296;10.602;2022-12-10T09:14:39;1130.30;;;999.90;;
974;SDS011;6115;49.296;10.602;2022-12-10T09:19:41;1181.87;;;999.90;;
974;SDS011;6115;49.296;10.602;2022-12-10T09:24:42;1138.07;;;999.90;;
974;SDS011;6115;49.296;10.602;2022-12-10T09:29:42;1109.97;;;999.90;;
974;SDS011;6115;49.296;10.602;2022-12-10T09:34:43;1122.30;;;999.90;;
974;SDS011;6115;49.296;10.602;2022-12-10T09:39:44;1115.27;;;999.90;;
974;SDS011;6115;49.296;10.602;2022-12-10T09:50:40;1137.53;;;999.90;;
974;SDS011;6115;49.296;10.602;2022-12-10T09:55:44;1089.90;;;999.70;;
974;SDS011;6115;49.296;10.602;2022-12-10T10:00:47;1184.53;;;999.90;;
974;SDS011;6115;49.296;10.602;2022-12-10T10:05:51;1195.33;;;999.90;;
974;SDS011;6115;49.296;10.602;2022-12-10T10:10:53;1203.63;;;999.90;;
974;SDS011;6115;49.296;10.602;2022-12-10T10:15:54;1249.17;;;999.90;;
974;SDS011;6115;49.296;10.602;2022-12-10T10:20:55;1227.20;;;999.90;;
974;SDS011;6115;49.296;10.602;2022-12-10T10:25:56;1269.57;;;999.90;;
974;SDS011;6115;49.296;10.602;2022-12-10T10:30:56;1318.63;;;999.90;;
974;SDS011;6115;49.296;10.602;2022-12-10T10:35:57;1335.57;;;999.90;;
974;SDS011;6115;49.296;10.602;2022-12-10T10:40:59;1317.57;;;999.90;;
974;SDS011;6115;49.296;10.602;2022-12-10T10:46:04;1338.83;;;999.90;;
974;SDS011;6115;49.296;10.602;2022-12-10T10:56:17;1317.57;;;999.90;;
974;SDS011;6115;49.296;10.602;2022-12-10T11:01:21;1297.70;;;999.90;;
974;SDS011;6115;49.296;10.602;2022-12-10T11:06:23;1306.30;;;999.90;;
974;SDS011;6115;49.296;10.602;2022-12-10T11:11:32;1283.07;;;999.90;;
974;SDS011;6115;49.296;10.602;2022-12-10T11:16:42;1323.23;;;999.90;;
974;SDS011;6115;49.296;10.602;2022-12-10T11:21:43;1306.47;;;999.90;;
974;SDS011;6115;49.296;10.602;2022-12-10T11:31:54;1311.67;;;999.90;;
974;SDS011;6115;49.296;10.602;2022-12-10T11:43:14;1271.70;;;999.90;;
974;SDS011;6115;49.296;10.602;2022-12-10T11:59:15;1248.90;;;999.90;;
974;SDS011;6115;49.296;10.602;2022-12-10T12:15:38;1256.63;;;999.90;;
974;SDS011;6115;49.296;10.602;2022-12-10T12:20:45;1266.10;;;999.90;;
974;SDS011;6115;49.296;10.602;2022-12-10T12:25:54;1279.77;;;999.90;;
974;SDS011;6115;49.296;10.602;2022-12-10T12:31:04;1289.90;;;999.90;;
974;SDS011;6115;49.296;10.602;2022-12-10T12:36:13;1286.13;;;999.90;;
974;SDS011;6115;49.296;10.602;2022-12-10T12:41:30;1274.43;;;999.90;;
974;SDS011;6115;49.296;10.602;2022-12-10T12:46:41;1289.43;;;999.90;;
974;SDS011;6115;49.296;10.602;2022-12-10T12:51:46;1283.97;;;999.90;;
974;SDS011;6115;49.296;10.602;2022-12-10T13:02:15;1295.87;;;999.90;;
974;SDS011;6115;49.296;10.602;2022-12-10T13:07:36;1273.73;;;999.90;;
974;SDS011;6115;49.296;10.602;2022-12-10T13:17:59;1287.37;;;999.90;;
974;SDS011;6115;49.296;10.602;2022-12-10T13:33:26;1290.40;;;999.90;;
974;SDS011;6115;49.296;10.602;2022-12-10T13:44:21;1284.53;;;999.90;;
974;SDS011;6115;49.296;10.602;2022-12-10T13:49:25;1277.03;;;999.90;;
974;SDS011;6115;49.296;10.602;2022-12-10T13:59:54;1268.87;;;999.90;;
974;SDS011;6115;49.296;10.602;2022-12-10T14:10:36;1242.87;;;999.90;;
974;SDS011;6115;49.296;10.602;2022-12-10T14:15:37;1226.90;;;999.90;;
974;SDS011;6115;49.296;10.602;2022-12-10T14:20:39;1219.57;;;999.90;;
974;SDS011;6115;49.296;10.602;2022-12-10T14:25:48;1225.17;;;999.90;;
974;SDS011;6115;49.296;10.602;2022-12-10T14:30:51;1212.27;;;999.90;;
974;SDS011;6115;49.296;10.602;2022-12-10T14:35:53;1209.67;;;999.90;;
974;SDS011;6115;49.296;10.602;2022-12-10T14:40:54;1223.60;;;999.90;;
974;SDS011;6115;49.296;10.602;2022-12-10T14:45:57;1198.37;;;999.90;;
974;SDS011;6115;49.296;10.602;2022-12-10T14:51:03;1200.37;;;999.90;;
974;SDS011;6115;49.296;10.602;2022-12-10T14:56:04;1185.73;;;999.90;;
974;SDS011;6115;49.296;10.602;2022-12-10T15:01:09;1165.77;;;999.90;;
974;SDS011;6115;49.296;10.602;2022-12-10T15:06:25;1180.43;;;999.90;;
974;SDS011;6115;49.296;10.602;2022-12-10T15:11:26;1150.93;;;999.90;;
974;SDS011;6115;49.296;10.602;2022-12-10T15:16:41;1120.43;;;999.90;;
974;SDS011;6115;49.296;10.602;2022-12-10T15:21:44;1072.27;;;984.90;;
974;SDS011;6115;49.296;10.602;2022-12-10T15:26:47;1043.93;;;961.47;;
974;SDS011;6115;49.296;10.602;2022-12-10T15:31:49;1023.67;;;944.40;;
974;SDS011;6115;49.296;10.602;2022-12-10T15:36:55;1029.97;;;950.20;;
974;SDS011;6115;49.296;10.602;2022-12-10T15:42:03;1038.97;;;957.90;;
974;SDS011;6115;49.296;10.602;2022-12-10T15:52:24;1018.97;;;940.30;;
974;SDS011;6115;49.296;10.602;2022-12-10T16:02:37;1001.00;;;925.07;;
974;SDS011;6115;49.296;10.602;2022-12-10T16:07:38;1022.20;;;942.63;;
974;SDS011;6115;49.296;10.602;2022-12-10T16:12:39;984.47;;;911.73;;
974;SDS011;6115;49.296;10.602;2022-12-10T16:17:40;973.17;;;900.90;;
974;SDS011;6115;49.296;10.602;2022-12-10T16:22:41;940.47;;;872.30;;
974;SDS011;6115;49.296;10.602;2022-12-10T16:27:41;972.00;;;900.17;;
974;SDS011;6115;49.296;10.602;2022-12-10T16:32:42;993.03;;;919.03;;
974;SDS011;6115;49.296;10.602;2022-12-10T16:37:44;1039.20;;;958.73;;
974;SDS011;6115;49.296;10.602;2022-12-10T16:42:46;1069.87;;;983.67;;
974;SDS011;6115;49.296;10.602;2022-12-10T16:47:48;1070.73;;;984.50;;
974;SDS011;6115;49.296;10.602;2022-12-10T16:52:48;1074.07;;;987.93;;
974;SDS011;6115;49.296;10.602;2022-12-10T16:57:51;1112.50;;;999.90;;
974;SDS011;6115;49.296;10.602;2022-12-10T17:02:52;1099.07;;;999.90;;
974;SDS011;6115;49.296;10.602;2022-12-10T17:07:53;1037.80;;;956.70;;
974;SDS011;6115;49.296;10.602;2022-12-10T17:12:53;972.87;;;900.97;;
974;SDS011;6115;49.296;10.602;2022-12-10T17:17:54;948.70;;;880.30;;
974;SDS011;6115;49.296;10.602;2022-12-10T17:22:54;986.73;;;912.83;;
974;SDS011;6115;49.296;10.602;2022-12-10T17:27:55;1005.30;;;929.73;;
974;SDS011;6115;49.296;10.602;2022-12-10T17:32:56;1061.67;;;977.67;;
974;SDS011;6115;49.296;10.602;2022-12-10T17:37:57;1096.77;;;999.90;;
974;SDS011;6115;49.296;10.602;2022-12-10T17:42:57;1086.37;;;997.93;;
974;SDS011;6115;49.296;10.602;2022-12-10T17:47:58;1085.30;;;997.13;;
974;SDS011;6115;49.296;10.602;2022-12-10T17:52:59;1112.70;;;999.90;;
974;SDS011;6115;49.296;10.602;2022-12-10T17:58:01;1070.83;;;985.43;;
974;SDS011;6115;49.296;10.602;2022-12-10T18:03:02;1050.93;;;968.33;;
974;SDS011;6115;49.296;10.602;2022-12-10T18:08:03;1053.60;;;970.60;;
974;SDS011;6115;49.296;10.602;2022-12-10T18:13:04;1027.47;;;948.37;;
974;SDS011;6115;49.296;10.602;2022-12-10T18:18:05;1065.87;;;981.10;;
974;SDS011;6115;49.296;10.602;2022-12-10T18:23:06;1095.40;;;999.90;;
974;SDS011;6115;49.296;10.602;2022-12-10T18:33:21;1027.87;;;948.93;;
974;SDS011;6115;49.296;10.602;2022-12-10T18:38:22;1084.10;;;996.93;;
974;SDS011;6115;49.296;10.602;2022-12-10T18:43:22;1123.87;;;999.90;;
974;SDS011;6115;49.296;10.602;2022-12-10T18:48:23;1102.87;;;999.90;;
974;SDS011;6115;49.296;10.602;2022-12-10T18:53:23;1062.20;;;977.73;;
974;SDS011;6115;49.296;10.602;2022-12-10T18:58:24;968.23;;;897.83;;
974;SDS011;6115;49.296;10.602;2022-12-10T19:03:24;959.90;;;889.70;;
974;SDS011;6115;49.296;10.602;2022-12-10T19:08:25;933.63;;;867.63;;
974;SDS011;6115;49.296;10.602;2022-12-10T19:13:27;886.10;;;825.33;;
974;SDS011;6115;49.296;10.602;2022-12-10T19:18:28;919.47;;;855.00;;
974;SDS011;6115;49.296;10.602;2022-12-10T19:23:29;869.10;;;810.33;;
974;SDS011;6115;49.296;10.602;2022-12-10T19:28:29;863.00;;;804.30;;
974;SDS011;6115;49.296;10.602;2022-12-10T19:33:30;776.50;;;726.40;;
974;SDS011;6115;49.296;10.602;2022-12-10T19:38:30;758.10;;;709.70;;
974;SDS011;6115;49.296;10.602;2022-12-10T19:43:31;764.77;;;715.30;;
974;SDS011;6115;49.296;10.602;2022-12-10T19:48:32;746.23;;;698.53;;
974;SDS011;6115;49.296;10.602;2022-12-10T19:53:32;761.27;;;712.57;;
974;SDS011;6115;49.296;10.602;2022-12-10T19:58:33;794.43;;;742.87;;
974;SDS011;6115;49.296;10.602;2022-12-10T20:03:33;838.90;;;783.20;;
974;SDS011;6115;49.296;10.602;2022-12-10T20:08:34;858.27;;;800.97;;
974;SDS011;6115;49.296;10.602;2022-12-10T20:13:36;815.93;;;762.83;;
974;SDS011;6115;49.296;10.602;2022-12-10T20:18:36;851.67;;;794.57;;
974;SDS011;6115;49.296;10.602;2022-12-10T20:23:37;810.03;;;757.33;;
974;SDS011;6115;49.296;10.602;2022-12-10T20:28:38;765.77;;;717.27;;
974;SDS011;6115;49.296;10.602;2022-12-10T20:33:38;683.13;;;641.63;;
974;SDS011;6115;49.296;10.602;2022-12-10T20:38:40;716.70;;;672.63;;
974;SDS011;6115;49.296;10.602;2022-12-10T20:43:41;658.67;;;618.97;;
974;SDS011;6115;49.296;10.602;2022-12-10T20:48:42;735.67;;;689.67;;
974;SDS011;6115;49.296;10.602;2022-12-10T20:53:43;617.73;;;581.73;;
974;SDS011;6115;49.296;10.602;2022-12-10T20:58:44;557.13;;;524.57;;
974;SDS011;6115;49.296;10.602;2022-12-10T21:03:45;593.27;;;558.77;;
974;SDS011;6115;49.296;10.602;2022-12-10T21:08:50;514.03;;;484.43;;
974;SDS011;6115;49.296;10.602;2022-12-10T21:13:51;524.43;;;494.13;;
974;SDS011;6115;49.296;10.602;2022-12-10T21:18:52;561.83;;;529.03;;
974;SDS011;6115;49.296;10.602;2022-12-10T21:23:54;612.90;;;576.93;;
974;SDS011;6115;49.296;10.602;2022-12-10T21:28:55;566.10;;;532.70;;
974;SDS011;6115;49.296;10.602;2022-12-10T21:33:56;411.77;;;388.27;;
974;SDS011;6115;49.296;10.602;2022-12-10T21:38:56;414.93;;;390.50;;
974;SDS011;6115;49.296;10.602;2022-12-10T21:43:57;411.37;;;388.17;;
974;SDS011;6115;49.296;10.602;2022-12-10T21:48:58;435.70;;;410.47;;
974;SDS011;6115;49.296;10.602;2022-12-10T21:53:58;487.47;;;458.90;;
974;SDS011;6115;49.296;10.602;2022-12-10T21:58:59;550.47;;;518.40;;
974;SDS011;6115;49.296;10.602;2022-12-10T22:04:00;506.70;;;477.73;;
974;SDS011;6115;49.296;10.602;2022-12-10T22:09:00;442.80;;;416.67;;
974;SDS011;6115;49.296;10.602;2022-12-10T22:14:01;491.97;;;463.47;;
974;SDS011;6115;49.296;10.602;2022-12-10T22:19:01;500.70;;;472.00;;
974;SDS011;6115;49.296;10.602;2022-12-10T22:24:02;457.47;;;430.63;;
974;SDS011;6115;49.296;10.602;2022-12-10T22:29:03;267.43;;;251.00;;
974;SDS011;6115;49.296;10.602;2022-12-10T22:34:06;258.20;;;242.20;;
974;SDS011;6115;49.296;10.602;2022-12-10T22:39:07;285.23;;;268.03;;
974;SDS011;6115;49.296;10.602;2022-12-10T22:44:09;290.87;;;273.20;;
974;SDS011;6115;49.296;10.602;2022-12-10T22:49:10;317.37;;;298.80;;
974;SDS011;6115;49.296;10.602;2022-12-10T22:54:10;363.77;;;342.90;;
974;SDS011;6115;49.296;10.602;2022-12-10T22:59:11;340.43;;;320.40;;
974;SDS011;6115;49.296;10.602;2022-12-10T23:04:11;387.67;;;365.00;;
974;SDS011;6115;49.296;10.602;2022-12-10T23:09:12;408.77;;;384.77;;
974;SDS011;6115;49.296;10.602;2022-12-10T23:14:12;396.27;;;373.47;;
974;SDS011;6115;49.296;10.602;2022-12-10T23:19:13;452.63;;;426.27;;
974;SDS011;6115;49.296;10.602;2022-12-10T23:24:14;401.73;;;378.53;;
974;SDS011;6115;49.296;10.602;2022-12-10T23:29:15;264.27;;;248.17;;
974;SDS011;6115;49.296;10.602;2022-12-10T23:34:15;206.60;;;192.47;;
974;SDS011;6115;49.296;10.602;2022-12-10T23:39:16;286.73;;;269.30;;
974;SDS011;6115;49.296;10.602;2022-12-10T23:44:17;278.53;;;261.13;;
974;SDS011;6115;49.296;10.602;2022-12-10T23:49:17;211.97;;;197.70;;
974;SDS011;6115;49.296;10.602;2022-12-10T23:54:18;177.83;;;164.70;;
974;SDS011;6115;49.296;10.602;2022-12-10T23:59:18;242.23;;;226.17;;
